createdAt,value
2018-08-18T00:00:57.492Z,5.28
2018-08-18T00:03:40.416Z,4.30
2018-08-18T00:06:14.320Z,4.00
2018-08-18T00:09:01.029Z,4.30
2018-08-18T00:11:37.747Z,4.42
2018-08-18T00:14:13.660Z,4.92
2018-08-18T00:20:57.981Z,4.15
2018-08-18T00:29:03.752Z,4.15
2018-08-18T00:31:45.462Z,3.92
2018-08-18T00:34:23.750Z,3.98
2018-08-18T00:40:31.037Z,4.37
2018-08-18T00:43:39.922Z,5.78
2018-08-18T00:49:08.256Z,4.37
2018-08-18T00:51:55.048Z,4.30
2018-08-18T00:57:30.257Z,4.55
2018-08-18T01:00:16.335Z,5.03
2018-08-18T01:02:53.294Z,4.28
2018-08-18T01:05:30.001Z,3.80
2018-08-18T01:10:51.044Z,4.22
2018-08-18T01:13:36.297Z,4.40
2018-08-18T01:16:26.772Z,5.55
2018-08-18T01:19:08.134Z,4.60
2018-08-18T01:21:54.004Z,4.55
2018-08-18T01:24:58.755Z,5.17
2018-08-18T01:27:39.317Z,4.55
2018-08-18T01:30:20.765Z,4.78
2018-08-18T01:32:53.560Z,4.37
2018-08-18T01:35:33.564Z,4.45
2018-08-18T01:38:12.638Z,4.00
2018-08-18T01:40:56.538Z,4.03
2018-08-18T01:43:40.506Z,4.62
2018-08-18T01:46:14.050Z,4.35
2018-08-18T01:48:53.724Z,5.22
2018-08-18T01:51:33.671Z,5.03
2018-08-18T01:54:16.190Z,5.15
2018-08-18T01:56:56.313Z,4.67
2018-08-18T01:59:42.207Z,4.28
2018-08-18T02:02:29.047Z,4.80
2018-08-18T02:05:18.934Z,5.08
2018-08-18T02:22:30.956Z,6.55
2018-08-18T02:25:18.850Z,7.78
2018-08-18T02:27:57.781Z,7.30
2018-08-18T02:36:32.547Z,6.03
2018-08-18T02:39:12.883Z,6.10
2018-08-18T02:53:28.033Z,6.23
2018-08-18T02:56:06.578Z,6.93
2018-08-18T02:58:59.638Z,7.55
2018-08-18T03:02:06.521Z,7.37
2018-08-18T03:07:45.096Z,7.90
2018-08-18T03:10:24.592Z,9.03
2018-08-18T03:13:04.482Z,7.00
2018-08-18T03:16:43.800Z,6.77
2018-08-18T03:19:32.090Z,6.45
2018-08-18T03:28:28.276Z,5.33
2018-08-18T03:31:11.401Z,5.37
2018-08-18T03:33:54.414Z,5.80
2018-08-18T03:36:47.842Z,6.17
2018-08-18T03:39:31.379Z,6.97
2018-08-18T03:42:10.623Z,8.80
2018-08-18T03:44:54.754Z,7.40
2018-08-18T03:47:37.485Z,7.80
2018-08-18T03:56:36.757Z,8.10
2018-08-18T04:02:21.474Z,8.50
2018-08-18T04:08:07.450Z,10.93
2018-08-18T04:10:48.487Z,8.10
2018-08-18T04:13:36.616Z,8.48
2018-08-18T04:16:18.012Z,9.60
2018-08-18T04:19:02.482Z,9.30
2018-08-18T04:21:39.863Z,10.00
2018-08-18T04:24:20.221Z,9.37
2018-08-18T04:30:06.520Z,9.30
2018-08-18T04:39:12.070Z,7.83
2018-08-18T04:42:02.291Z,8.37
2018-08-18T04:44:52.680Z,8.43
2018-08-18T04:51:20.649Z,7.10
2018-08-18T04:53:57.314Z,6.67
2018-08-18T05:00:21.164Z,7.40
2018-08-18T05:03:14.479Z,10.50
2018-08-18T05:05:51.092Z,7.58
2018-08-18T05:08:42.391Z,7.30
2018-08-18T05:11:22.061Z,6.80
2018-08-18T05:14:00.389Z,7.80
2018-08-18T05:16:42.908Z,6.97
2018-08-18T05:19:28.158Z,7.65
2018-08-18T05:22:04.893Z,5.65
2018-08-18T05:24:45.419Z,5.85
2018-08-18T05:27:32.516Z,5.47
2018-08-18T05:30:11.508Z,5.03
2018-08-18T05:32:40.618Z,6.37
2018-08-18T05:35:10.618Z,8.25
2018-08-18T05:37:39.631Z,6.00
2018-08-18T05:40:10.669Z,4.90
2018-08-18T05:42:40.109Z,5.50
2018-08-18T05:45:22.605Z,6.45
2018-08-18T05:47:54.280Z,5.85
2018-08-18T05:50:26.609Z,5.62
2018-08-18T05:52:58.877Z,4.87
2018-08-18T05:55:28.572Z,5.72
2018-08-18T05:57:58.527Z,5.33
2018-08-18T06:00:35.096Z,5.83
2018-08-18T06:03:42.712Z,4.85
2018-08-18T06:06:38.831Z,8.63
2018-08-18T06:09:19.741Z,5.08
2018-08-18T06:11:55.622Z,5.87
2018-08-18T06:17:35.685Z,5.50
2018-08-18T06:20:15.448Z,5.12
2018-08-18T06:22:49.391Z,5.33
2018-08-18T06:25:24.059Z,5.10
2018-08-18T06:28:04.739Z,5.53
2018-08-18T06:30:54.951Z,6.28
2018-08-18T06:33:44.591Z,7.12
2018-08-18T06:36:30.838Z,5.28
2018-08-18T06:39:19.376Z,5.90
2018-08-18T06:42:26.812Z,6.20
2018-08-18T06:45:06.818Z,6.30
2018-08-18T06:47:49.639Z,6.20
2018-08-18T06:50:35.206Z,6.70
2018-08-18T06:53:13.673Z,8.00
2018-08-18T06:55:51.989Z,6.20
2018-08-18T07:12:25.170Z,7.47
2018-08-18T07:14:59.760Z,7.08
2018-08-18T07:17:34.578Z,8.03
2018-08-18T07:20:03.758Z,6.85
2018-08-18T07:22:35.604Z,7.28
2018-08-18T07:25:05.728Z,7.20
2018-08-18T07:27:38.329Z,7.15
2018-08-18T07:30:12.765Z,7.03
2018-08-18T07:32:45.434Z,7.65
2018-08-18T07:35:15.865Z,7.28
2018-08-18T07:37:48.949Z,6.80
2018-08-18T07:41:29.816Z,7.37
2018-08-18T07:49:47.766Z,6.87
2018-08-18T07:55:47.499Z,6.40
2018-08-18T08:01:35.482Z,7.10
2018-08-18T08:04:15.321Z,6.90
2018-08-18T08:07:07.889Z,8.50
2018-08-18T08:12:50.396Z,7.15
2018-08-18T08:15:41.404Z,7.80
2018-08-18T08:18:26.252Z,8.30
2018-08-18T08:21:00.187Z,8.05
2018-08-18T08:23:30.986Z,8.88
2018-08-18T08:26:01.495Z,8.30
2018-08-18T08:28:34.400Z,7.40
2018-08-18T08:31:05.342Z,8.38
2018-08-18T08:33:38.145Z,7.58
2018-08-18T08:36:12.041Z,6.95
2018-08-18T08:38:58.014Z,7.92
2018-08-18T08:41:28.368Z,8.25
2018-08-18T08:57:57.742Z,9.33
2018-08-18T09:00:27.968Z,8.10
2018-08-18T09:02:58.205Z,7.58
2018-08-18T09:05:31.071Z,11.45
2018-08-18T09:08:00.909Z,8.58
2018-08-18T09:10:35.831Z,7.92
2018-08-18T09:13:05.004Z,8.23
2018-08-18T09:15:34.518Z,8.23
2018-08-18T09:18:03.569Z,8.30
2018-08-18T09:23:54.156Z,9.15
2018-08-18T09:26:42.018Z,8.18
2018-08-18T09:29:23.810Z,8.73
2018-08-18T09:31:59.703Z,8.65
2018-08-18T09:34:45.468Z,8.05
2018-08-18T09:37:26.158Z,8.05
2018-08-18T09:39:57.087Z,6.78
2018-08-18T09:42:32.848Z,7.35
2018-08-18T09:57:20.260Z,7.67
2018-08-18T21:21:30.345Z,11.38
2018-08-18T21:24:00.761Z,15.43
2018-08-18T21:26:30.131Z,15.30
2018-08-18T21:29:01.107Z,24.80
2018-08-18T21:31:36.103Z,15.35
2018-08-18T21:34:08.903Z,14.65
2018-08-18T21:36:38.824Z,12.45
2018-08-18T21:39:14.679Z,14.20
2018-08-18T21:41:47.871Z,12.78
2018-08-18T21:44:22.095Z,13.38
2018-08-18T21:47:00.104Z,12.05
2018-08-18T21:49:48.754Z,12.50
2018-08-18T21:55:39.172Z,12.60
2018-08-18T21:58:16.185Z,14.70
2018-08-18T22:00:54.630Z,14.75
2018-08-18T22:06:26.441Z,13.85
2018-08-18T22:09:18.185Z,13.62
2018-08-18T22:12:14.133Z,13.38
2018-08-18T22:17:52.154Z,41.23
2018-08-18T22:20:31.386Z,16.25
2018-08-18T22:23:14.468Z,15.28
2018-08-18T22:28:43.891Z,15.00
2018-08-18T22:34:06.804Z,13.98
2018-08-18T22:36:40.779Z,13.28
2018-08-18T22:39:17.932Z,13.70
2018-08-18T22:41:56.662Z,14.25
2018-08-18T22:44:34.724Z,13.62
2018-08-18T22:50:27.023Z,13.90
2018-08-18T22:56:09.113Z,13.98
2018-08-18T22:59:09.030Z,14.10
2018-08-18T23:02:03.426Z,14.13
2018-08-18T23:07:34.733Z,13.78
2018-08-18T23:10:09.621Z,13.70
2018-08-18T23:15:27.671Z,13.25
2018-08-18T23:18:06.006Z,13.13
2018-08-18T23:20:47.936Z,15.55
2018-08-18T23:23:46.657Z,13.53
2018-08-18T23:26:21.046Z,14.15
2018-08-18T23:31:49.064Z,13.13
2018-08-18T23:37:20.622Z,17.02
2018-08-18T23:39:55.973Z,12.68
2018-08-18T23:42:26.854Z,15.50
2018-08-18T23:45:02.467Z,14.73
2018-08-18T23:47:46.809Z,21.37
2018-08-18T23:50:24.656Z,24.12
2018-08-18T23:53:09.374Z,15.20
2018-08-18T23:56:01.454Z,13.38
2018-08-18T23:58:38.330Z,13.20
